Niobrara River (Nebraska), Mariaville (06463720)

StateNebraskaLatestGood (1680 cfs)
RiverNiobrara RiverRatingObservedEstimated
Updated2026-05-10 10:45 (22 minutes ago)Flood - The river is flooding. Obstacles can be treacherous or deadly. The river should be avoided at this stage for casual trips and definitely for the inexperienced. Trips should be attempted only with protective gear and equipment.Flood(none)3275
Discharge1680 cfs (median: 1780 cfs)High - The river is high and potentially dangerous, especially for the young and / or inexperienced. Normal stream obstacles are sometimes difficult to navigate. Extended distances can be attempted, but canoe travel may not be advisable.High(none)1772
Height3.25 feetGood - Conditions are ideal for a canoe or kayak. Boats typically will drag on fewer than one-quarter of riffles, if at all, and portages are unnecessary or rare. Normal float lengths can be attempted without a problem.Good(none)1556
TrendRising (falling over 24 hours)Low - River is low but can still be floated. Some riffles are okay but most come with significant dragging and might need a portage. Float lengths should be reduced to accommodate low flow, dragging, and portages.Low(none)1243
USGSExternal icon USGS Site (External icon Duck Duck Go Maps)Poor - River is too low to float comfortably. Most or all riffles will drag or must be portaged and some obstacles (such as slick shelf rock) cause undue problems. Avoid the river at this stage for casual paddling trips.Poor(none)749

Trending Data

Plot Image

Trips for Niobrara River (Nebraska), Mariaville (06463720)

DateStartEndDistanceConditionDischargeHeightFishingDetails

A total of 0 rows are displayed.

Condition Descriptions

Fishing Conditions

Fish Species

Notes

Classic Trip List

The classic River Trips application is still available for use. It is updated with the new system using a data retrofit. It is no longer maintained. The original River Trips application is no longer updated (as of 1 Dec 2016) but can be checked for errors or for the condition of the data before it was converted to the new system.

Gauge Data Table

ObservationHeightDischargeMaximum
Discharge
Minimum
Discharge
Mean
Discharge
P05P10P20P25P50
(Median)
P75P80P90P95
2026-05-10 10:45 3.25 1680 2860 (2019) 1340 (2025) 1890 1360 1530 1570 1780 2170 2330 2780
2026-05-10 09:45 3.23 1660 2860 (2019) 1340 (2025) 1890 1360 1530 1570 1780 2170 2330 2780
2026-05-10 08:45 3.23 1660 2860 (2019) 1340 (2025) 1890 1360 1530 1570 1780 2170 2330 2780
2026-05-10 07:45 3.22 1650 2860 (2019) 1340 (2025) 1890 1360 1530 1570 1780 2170 2330 2780
2026-05-10 06:45 3.19 1630 2860 (2019) 1340 (2025) 1890 1360 1530 1570 1780 2170 2330 2780
2026-05-10 05:45 3.13 1580 2860 (2019) 1340 (2025) 1890 1360 1530 1570 1780 2170 2330 2780
2026-05-10 04:45 3.20 1630 2860 (2019) 1340 (2025) 1890 1360 1530 1570 1780 2170 2330 2780
2026-05-10 03:45 3.22 1650 2860 (2019) 1340 (2025) 1890 1360 1530 1570 1780 2170 2330 2780
2026-05-10 02:45 3.23 1660 2860 (2019) 1340 (2025) 1890 1360 1530 1570 1780 2170 2330 2780
2026-05-10 01:45 3.23 1660 2860 (2019) 1340 (2025) 1890 1360 1530 1570 1780 2170 2330 2780
2026-05-10 00:45 3.21 1640 2860 (2019) 1340 (2025) 1890 1360 1530 1570 1780 2170 2330 2780
2026-05-09 23:45 3.22 1650 2860 (2019) 1340 (2025) 1890 1360 1530 1570 1780 2170 2330 2780
2026-05-09 22:45 3.22 1650 2940 (2019) 1380 (2025) 1960 1380 1540 1590 1820 2420 2590 2840
2026-05-09 21:45 3.25 1680 2940 (2019) 1380 (2025) 1960 1380 1540 1590 1820 2420 2590 2840
2026-05-09 20:45 3.25 1680 2940 (2019) 1380 (2025) 1960 1380 1540 1590 1820 2420 2590 2840
2026-05-09 19:45 3.24 1670 2940 (2019) 1380 (2025) 1960 1380 1540 1590 1820 2420 2590 2840
2026-05-09 18:45 3.25 1680 2940 (2019) 1380 (2025) 1960 1380 1540 1590 1820 2420 2590 2840
2026-05-09 17:45 3.27 1690 2940 (2019) 1380 (2025) 1960 1380 1540 1590 1820 2420 2590 2840
2026-05-09 16:45 3.27 1690 2940 (2019) 1380 (2025) 1960 1380 1540 1590 1820 2420 2590 2840
2026-05-09 15:45 3.31 1720 2940 (2019) 1380 (2025) 1960 1380 1540 1590 1820 2420 2590 2840
2026-05-09 14:45 3.28 1700 2940 (2019) 1380 (2025) 1960 1380 1540 1590 1820 2420 2590 2840
2026-05-09 13:45 3.27 1690 2940 (2019) 1380 (2025) 1960 1380 1540 1590 1820 2420 2590 2840
2026-05-09 12:45 3.31 1720 2940 (2019) 1380 (2025) 1960 1380 1540 1590 1820 2420 2590 2840
2026-05-09 11:45 3.28 1700 2940 (2019) 1380 (2025) 1960 1380 1540 1590 1820 2420 2590 2840
2026-05-09 10:45 3.28 1700 2940 (2019) 1380 (2025) 1960 1380 1540 1590 1820 2420 2590 2840
2026-05-09 09:45 3.27 1690 2940 (2019) 1380 (2025) 1960 1380 1540 1590 1820 2420 2590 2840
2026-05-09 08:45 3.21 1640 2940 (2019) 1380 (2025) 1960 1380 1540 1590 1820 2420 2590 2840
2026-05-09 07:45 3.15 1600 2940 (2019) 1380 (2025) 1960 1380 1540 1590 1820 2420 2590 2840
2026-05-09 06:45 3.19 1630 2940 (2019) 1380 (2025) 1960 1380 1540 1590 1820 2420 2590 2840
2026-05-09 05:45 3.16 1600 2940 (2019) 1380 (2025) 1960 1380 1540 1590 1820 2420 2590 2840
2026-05-09 04:45 3.22 1650 2940 (2019) 1380 (2025) 1960 1380 1540 1590 1820 2420 2590 2840
2026-05-09 03:45 3.24 1670 2940 (2019) 1380 (2025) 1960 1380 1540 1590 1820 2420 2590 2840
2026-05-09 02:45 3.23 1660 2940 (2019) 1380 (2025) 1960 1380 1540 1590 1820 2420 2590 2840
2026-05-09 01:45 3.25 1680 2940 (2019) 1380 (2025) 1960 1380 1540 1590 1820 2420 2590 2840
2026-05-09 00:45 3.21 1640 2940 (2019) 1380 (2025) 1960 1380 1540 1590 1820 2420 2590 2840
2026-05-08 23:45 3.13 1580 2940 (2019) 1380 (2025) 1960 1380 1540 1590 1820 2420 2590 2840
2026-05-08 22:45 3.12 1570 3030 (2020) 1410 (2025) 1940 1420 1530 1550 1820 2350 2440 2840
2026-05-08 21:45 3.05 1520 3030 (2020) 1410 (2025) 1940 1420 1530 1550 1820 2350 2440 2840
2026-05-08 20:45 2.96 1350 3030 (2020) 1410 (2025) 1940 1420 1530 1550 1820 2350 2440 2840
2026-05-08 19:45 3.01 1490 3030 (2020) 1410 (2025) 1940 1420 1530 1550 1820 2350 2440 2840
2026-05-08 18:45 3.01 1490 3030 (2020) 1410 (2025) 1940 1420 1530 1550 1820 2350 2440 2840
2026-05-08 17:45 3.07 1530 3030 (2020) 1410 (2025) 1940 1420 1530 1550 1820 2350 2440 2840
2026-05-08 16:45 3.02 1500 3030 (2020) 1410 (2025) 1940 1420 1530 1550 1820 2350 2440 2840
2026-05-08 15:45 2.98 1410 3030 (2020) 1410 (2025) 1940 1420 1530 1550 1820 2350 2440 2840
2026-05-08 14:45 3.02 1500 3030 (2020) 1410 (2025) 1940 1420 1530 1550 1820 2350 2440 2840
2026-05-08 13:45 3.00 1480 3030 (2020) 1410 (2025) 1940 1420 1530 1550 1820 2350 2440 2840
2026-05-08 12:45 2.97 1380 3030 (2020) 1410 (2025) 1940 1420 1530 1550 1820 2350 2440 2840
2026-05-08 11:45 3.06 1530 3030 (2020) 1410 (2025) 1940 1420 1530 1550 1820 2350 2440 2840
2026-05-08 10:45 3.03 1500 3030 (2020) 1410 (2025) 1940 1420 1530 1550 1820 2350 2440 2840
2026-05-08 09:45 3.04 1510 3030 (2020) 1410 (2025) 1940 1420 1530 1550 1820 2350 2440 2840
2026-05-08 08:45 3.15 1600 3030 (2020) 1410 (2025) 1940 1420 1530 1550 1820 2350 2440 2840
2026-05-08 07:45 3.08 1540 3030 (2020) 1410 (2025) 1940 1420 1530 1550 1820 2350 2440 2840
2026-05-08 06:45 3.12 1570 3030 (2020) 1410 (2025) 1940 1420 1530 1550 1820 2350 2440 2840
2026-05-08 05:45 3.12 1570 3030 (2020) 1410 (2025) 1940 1420 1530 1550 1820 2350 2440 2840
2026-05-08 04:45 3.14 1590 3030 (2020) 1410 (2025) 1940 1420 1530 1550 1820 2350 2440 2840
2026-05-08 03:45 3.19 1630 3030 (2020) 1410 (2025) 1940 1420 1530 1550 1820 2350 2440 2840
2026-05-08 02:45 3.11 1560 3030 (2020) 1410 (2025) 1940 1420 1530 1550 1820 2350 2440 2840
2026-05-08 01:45 3.13 1580 3030 (2020) 1410 (2025) 1940 1420 1530 1550 1820 2350 2440 2840
2026-05-08 00:45 3.14 1590 3030 (2020) 1410 (2025) 1940 1420 1530 1550 1820 2350 2440 2840
2026-05-07 23:45 3.14 1590 3030 (2020) 1410 (2025) 1940 1420 1530 1550 1820 2350 2440 2840
2026-05-07 22:45 3.12 1570 2930 (2020) 1360 (2013) 1870 1380 1430 1460 1880 2150 2190 2690
2026-05-07 21:45 3.10 1560 2930 (2020) 1360 (2013) 1870 1380 1430 1460 1880 2150 2190 2690
2026-05-07 20:45 3.09 1550 2930 (2020) 1360 (2013) 1870 1380 1430 1460 1880 2150 2190 2690
2026-05-07 19:45 3.10 1560 2930 (2020) 1360 (2013) 1870 1380 1430 1460 1880 2150 2190 2690
2026-05-07 18:45 3.10 1560 2930 (2020) 1360 (2013) 1870 1380 1430 1460 1880 2150 2190 2690
2026-05-07 17:45 3.11 1560 2930 (2020) 1360 (2013) 1870 1380 1430 1460 1880 2150 2190 2690
2026-05-07 16:45 3.14 1590 2930 (2020) 1360 (2013) 1870 1380 1430 1460 1880 2150 2190 2690
2026-05-07 15:45 3.13 1580 2930 (2020) 1360 (2013) 1870 1380 1430 1460 1880 2150 2190 2690
2026-05-07 14:45 3.15 1600 2930 (2020) 1360 (2013) 1870 1380 1430 1460 1880 2150 2190 2690
2026-05-07 13:45 3.17 1610 2930 (2020) 1360 (2013) 1870 1380 1430 1460 1880 2150 2190 2690
2026-05-07 12:45 3.14 1590 2930 (2020) 1360 (2013) 1870 1380 1430 1460 1880 2150 2190 2690
2026-05-07 11:45 3.14 1590 2930 (2020) 1360 (2013) 1870 1380 1430 1460 1880 2150 2190 2690
2026-05-07 10:45 3.10 1560 2930 (2020) 1360 (2013) 1870 1380 1430 1460 1880 2150 2190 2690
2026-05-07 09:45 3.11 1560 2930 (2020) 1360 (2013) 1870 1380 1430 1460 1880 2150 2190 2690
2026-05-07 08:45 3.12 1570 2930 (2020) 1360 (2013) 1870 1380 1430 1460 1880 2150 2190 2690
2026-05-07 07:45 3.17 1610 2930 (2020) 1360 (2013) 1870 1380 1430 1460 1880 2150 2190 2690
2026-05-07 06:45 3.20 1630 2930 (2020) 1360 (2013) 1870 1380 1430 1460 1880 2150 2190 2690
2026-05-07 05:45 3.22 1650 2930 (2020) 1360 (2013) 1870 1380 1430 1460 1880 2150 2190 2690
2026-05-07 04:45 3.19 1630 2930 (2020) 1360 (2013) 1870 1380 1430 1460 1880 2150 2190 2690
2026-05-07 03:45 3.17 1610 2930 (2020) 1360 (2013) 1870 1380 1430 1460 1880 2150 2190 2690
2026-05-07 02:45 3.15 1600 2930 (2020) 1360 (2013) 1870 1380 1430 1460 1880 2150 2190 2690
2026-05-07 01:45 3.12 1570 2930 (2020) 1360 (2013) 1870 1380 1430 1460 1880 2150 2190 2690
2026-05-07 00:45 3.15 1600 2930 (2020) 1360 (2013) 1870 1380 1430 1460 1880 2150 2190 2690
2026-05-06 23:45 3.14 1590 2930 (2020) 1360 (2013) 1870 1380 1430 1460 1880 2150 2190 2690
2026-05-06 22:45 3.12 1570 2900 (2020) 1280 (2023) 1870 1290 1400 1450 1750 2260 2410 2730
2026-05-06 21:45 3.12 1570 2900 (2020) 1280 (2023) 1870 1290 1400 1450 1750 2260 2410 2730
2026-05-06 20:45 3.12 1570 2900 (2020) 1280 (2023) 1870 1290 1400 1450 1750 2260 2410 2730
2026-05-06 19:45 3.15 1600 2900 (2020) 1280 (2023) 1870 1290 1400 1450 1750 2260 2410 2730
2026-05-06 18:45 3.15 1600 2900 (2020) 1280 (2023) 1870 1290 1400 1450 1750 2260 2410 2730
2026-05-06 17:45 3.18 1620 2900 (2020) 1280 (2023) 1870 1290 1400 1450 1750 2260 2410 2730
2026-05-06 16:45 3.18 1620 2900 (2020) 1280 (2023) 1870 1290 1400 1450 1750 2260 2410 2730
2026-05-06 15:45 3.20 1630 2900 (2020) 1280 (2023) 1870 1290 1400 1450 1750 2260 2410 2730
2026-05-06 14:45 3.22 1650 2900 (2020) 1280 (2023) 1870 1290 1400 1450 1750 2260 2410 2730
2026-05-06 13:45 3.23 1660 2900 (2020) 1280 (2023) 1870 1290 1400 1450 1750 2260 2410 2730
2026-05-06 12:45 3.23 1660 2900 (2020) 1280 (2023) 1870 1290 1400 1450 1750 2260 2410 2730
2026-05-06 11:45 3.22 1650 2900 (2020) 1280 (2023) 1870 1290 1400 1450 1750 2260 2410 2730
2026-05-06 10:45 3.22 1650 2900 (2020) 1280 (2023) 1870 1290 1400 1450 1750 2260 2410 2730
2026-05-06 09:45 3.23 1660 2900 (2020) 1280 (2023) 1870 1290 1400 1450 1750 2260 2410 2730
2026-05-06 08:45 3.23 1660 2900 (2020) 1280 (2023) 1870 1290 1400 1450 1750 2260 2410 2730
2026-05-06 07:45 3.25 1680 2900 (2020) 1280 (2023) 1870 1290 1400 1450 1750 2260 2410 2730
2026-05-06 06:45 3.24 1670 2900 (2020) 1280 (2023) 1870 1290 1400 1450 1750 2260 2410 2730
2026-05-06 05:45 3.22 1650 2900 (2020) 1280 (2023) 1870 1290 1400 1450 1750 2260 2410 2730
2026-05-06 04:45 3.21 1640 2900 (2020) 1280 (2023) 1870 1290 1400 1450 1750 2260 2410 2730
2026-05-06 03:45 3.21 1640 2900 (2020) 1280 (2023) 1870 1290 1400 1450 1750 2260 2410 2730
2026-05-06 02:45 3.23 1660 2900 (2020) 1280 (2023) 1870 1290 1400 1450 1750 2260 2410 2730
2026-05-06 01:45 3.26 1680 2900 (2020) 1280 (2023) 1870 1290 1400 1450 1750 2260 2410 2730
2026-05-06 00:45 3.27 1690 2900 (2020) 1280 (2023) 1870 1290 1400 1450 1750 2260 2410 2730
2026-05-05 23:45 3.27 1690 2900 (2020) 1280 (2023) 1870 1290 1400 1450 1750 2260 2410 2730
2026-05-05 22:45 3.29 1710 2780 (2016) 1140 (2013) 1840 1220 1350 1370 1650 2290 2380 2770
2026-05-05 21:45 3.28 1700 2780 (2016) 1140 (2013) 1840 1220 1350 1370 1650 2290 2380 2770
2026-05-05 20:45 3.27 1690 2780 (2016) 1140 (2013) 1840 1220 1350 1370 1650 2290 2380 2770
2026-05-05 19:45 3.27 1690 2780 (2016) 1140 (2013) 1840 1220 1350 1370 1650 2290 2380 2770
2026-05-05 18:45 3.27 1690 2780 (2016) 1140 (2013) 1840 1220 1350 1370 1650 2290 2380 2770
2026-05-05 17:45 3.25 1680 2780 (2016) 1140 (2013) 1840 1220 1350 1370 1650 2290 2380 2770
2026-05-05 16:45 3.24 1670 2780 (2016) 1140 (2013) 1840 1220 1350 1370 1650 2290 2380 2770
2026-05-05 15:45 3.26 1680 2780 (2016) 1140 (2013) 1840 1220 1350 1370 1650 2290 2380 2770
2026-05-05 14:45 3.26 1680 2780 (2016) 1140 (2013) 1840 1220 1350 1370 1650 2290 2380 2770
2026-05-05 13:45 3.29 1710 2780 (2016) 1140 (2013) 1840 1220 1350 1370 1650 2290 2380 2770
2026-05-05 12:45 3.23 1660 2780 (2016) 1140 (2013) 1840 1220 1350 1370 1650 2290 2380 2770
2026-05-05 11:45 3.23 1660 2780 (2016) 1140 (2013) 1840 1220 1350 1370 1650 2290 2380 2770
2026-05-05 11:00 3.20 1630 2780 (2016) 1140 (2013) 1840 1220 1350 1370 1650 2290 2380 2770
2026-05-05 10:45 3.20 1630 2780 (2016) 1140 (2013) 1840 1220 1350 1370 1650 2290 2380 2770
2026-05-05 09:45 3.20 1630 2780 (2016) 1140 (2013) 1840 1220 1350 1370 1650 2290 2380 2770
2026-05-05 08:45 3.25 1680 2780 (2016) 1140 (2013) 1840 1220 1350 1370 1650 2290 2380 2770
2026-05-05 07:45 3.19 1630 2780 (2016) 1140 (2013) 1840 1220 1350 1370 1650 2290 2380 2770
2026-05-05 06:45 3.26 1680 2780 (2016) 1140 (2013) 1840 1220 1350 1370 1650 2290 2380 2770
2026-05-05 05:45 3.26 1680 2780 (2016) 1140 (2013) 1840 1220 1350 1370 1650 2290 2380 2770
2026-05-05 04:45 3.25 1680 2780 (2016) 1140 (2013) 1840 1220 1350 1370 1650 2290 2380 2770
2026-05-05 03:45 3.27 1690 2780 (2016) 1140 (2013) 1840 1220 1350 1370 1650 2290 2380 2770
2026-05-05 02:45 3.25 1680 2780 (2016) 1140 (2013) 1840 1220 1350 1370 1650 2290 2380 2770
2026-05-05 01:45 3.28 1700 2780 (2016) 1140 (2013) 1840 1220 1350 1370 1650 2290 2380 2770
2026-05-05 00:45 3.27 1690 2780 (2016) 1140 (2013) 1840 1220 1350 1370 1650 2290 2380 2770
2026-05-04 23:45 3.28 1700 2780 (2016) 1140 (2013) 1840 1220 1350 1370 1650 2290 2380 2770
2026-05-04 22:45 3.31 1720 3180 (2016) 1320 (2013) 1920 1360 1410 1460 1690 2150 2360 3130
2026-05-04 21:45 3.30 1720 3180 (2016) 1320 (2013) 1920 1360 1410 1460 1690 2150 2360 3130
2026-05-04 20:45 3.32 1730 3180 (2016) 1320 (2013) 1920 1360 1410 1460 1690 2150 2360 3130
2026-05-04 19:45 3.32 1730 3180 (2016) 1320 (2013) 1920 1360 1410 1460 1690 2150 2360 3130
2026-05-04 18:45 3.34 1750 3180 (2016) 1320 (2013) 1920 1360 1410 1460 1690 2150 2360 3130
2026-05-04 17:45 3.32 1730 3180 (2016) 1320 (2013) 1920 1360 1410 1460 1690 2150 2360 3130
2026-05-04 16:45 3.33 1740 3180 (2016) 1320 (2013) 1920 1360 1410 1460 1690 2150 2360 3130
2026-05-04 15:45 3.33 1740 3180 (2016) 1320 (2013) 1920 1360 1410 1460 1690 2150 2360 3130
2026-05-04 14:45 3.36 1770 3180 (2016) 1320 (2013) 1920 1360 1410 1460 1690 2150 2360 3130
2026-05-04 13:45 3.34 1750 3180 (2016) 1320 (2013) 1920 1360 1410 1460 1690 2150 2360 3130
2026-05-04 12:45 3.33 1740 3180 (2016) 1320 (2013) 1920 1360 1410 1460 1690 2150 2360 3130
2026-05-04 11:45 3.32 1730 3180 (2016) 1320 (2013) 1920 1360 1410 1460 1690 2150 2360 3130
2026-05-04 10:45 3.34 1750 3180 (2016) 1320 (2013) 1920 1360 1410 1460 1690 2150 2360 3130
2026-05-04 09:45 3.38 1780 3180 (2016) 1320 (2013) 1920 1360 1410 1460 1690 2150 2360 3130
2026-05-04 08:45 3.38 1780 3180 (2016) 1320 (2013) 1920 1360 1410 1460 1690 2150 2360 3130
2026-05-04 07:45 3.34 1750 3180 (2016) 1320 (2013) 1920 1360 1410 1460 1690 2150 2360 3130
2026-05-04 06:45 3.36 1770 3180 (2016) 1320 (2013) 1920 1360 1410 1460 1690 2150 2360 3130
2026-05-04 05:45 3.37 1780 3180 (2016) 1320 (2013) 1920 1360 1410 1460 1690 2150 2360 3130
2026-05-04 04:45 3.40 1800 3180 (2016) 1320 (2013) 1920 1360 1410 1460 1690 2150 2360 3130
2026-05-04 03:45 3.33 1740 3180 (2016) 1320 (2013) 1920 1360 1410 1460 1690 2150 2360 3130
2026-05-04 02:45 3.27 1690 3180 (2016) 1320 (2013) 1920 1360 1410 1460 1690 2150 2360 3130
2026-05-04 01:45 3.39 1790 3180 (2016) 1320 (2013) 1920 1360 1410 1460 1690 2150 2360 3130
2026-05-04 00:45 3.34 1750 3180 (2016) 1320 (2013) 1920 1360 1410 1460 1690 2150 2360 3130
2026-05-03 23:45 3.36 1770 3180 (2016) 1320 (2013) 1920 1360 1410 1460 1690 2150 2360 3130
2026-05-03 22:45 3.35 1760 3370 (2016) 1220 (2013) 1900 1280 1400 1460 1770 2170 2350 3180
2026-05-03 21:45 3.33 1740 3370 (2016) 1220 (2013) 1900 1280 1400 1460 1770 2170 2350 3180
2026-05-03 20:45 3.31 1720 3370 (2016) 1220 (2013) 1900 1280 1400 1460 1770 2170 2350 3180
2026-05-03 19:45 3.30 1720 3370 (2016) 1220 (2013) 1900 1280 1400 1460 1770 2170 2350 3180
2026-05-03 18:45 3.28 1700 3370 (2016) 1220 (2013) 1900 1280 1400 1460 1770 2170 2350 3180
2026-05-03 17:45 3.32 1730 3370 (2016) 1220 (2013) 1900 1280 1400 1460 1770 2170 2350 3180
2026-05-03 16:45 3.32 1730 3370 (2016) 1220 (2013) 1900 1280 1400 1460 1770 2170 2350 3180
2026-05-03 15:45 3.31 1720 3370 (2016) 1220 (2013) 1900 1280 1400 1460 1770 2170 2350 3180
2026-05-03 14:45 3.34 1750 3370 (2016) 1220 (2013) 1900 1280 1400 1460 1770 2170 2350 3180
2026-05-03 13:45 3.32 1730 3370 (2016) 1220 (2013) 1900 1280 1400 1460 1770 2170 2350 3180
2026-05-03 12:45 3.30 1720 3370 (2016) 1220 (2013) 1900 1280 1400 1460 1770 2170 2350 3180
2026-05-03 11:45 3.32 1730 3370 (2016) 1220 (2013) 1900 1280 1400 1460 1770 2170 2350 3180
2026-05-03 10:45 3.30 1720 3370 (2016) 1220 (2013) 1900 1280 1400 1460 1770 2170 2350 3180
2026-05-03 09:45 3.23 1660 3370 (2016) 1220 (2013) 1900 1280 1400 1460 1770 2170 2350 3180
2026-05-03 08:45 3.22 1650 3370 (2016) 1220 (2013) 1900 1280 1400 1460 1770 2170 2350 3180
2026-05-03 07:45 3.21 1640 3370 (2016) 1220 (2013) 1900 1280 1400 1460 1770 2170 2350 3180
2026-05-03 06:45 3.25 1680 3370 (2016) 1220 (2013) 1900 1280 1400 1460 1770 2170 2350 3180
2026-05-03 05:45 3.24 1670 3370 (2016) 1220 (2013) 1900 1280 1400 1460 1770 2170 2350 3180
2026-05-03 04:45 3.29 1710 3370 (2016) 1220 (2013) 1900 1280 1400 1460 1770 2170 2350 3180
2026-05-03 03:45 3.25 1680 3370 (2016) 1220 (2013) 1900 1280 1400 1460 1770 2170 2350 3180
2026-05-03 02:45 3.27 1690 3370 (2016) 1220 (2013) 1900 1280 1400 1460 1770 2170 2350 3180
2026-05-03 01:45 3.29 1710 3370 (2016) 1220 (2013) 1900 1280 1400 1460 1770 2170 2350 3180
2026-05-03 00:45 3.28 1700 3370 (2016) 1220 (2013) 1900 1280 1400 1460 1770 2170 2350 3180
2026-05-02 23:45 3.26 1680 3370 (2016) 1220 (2013) 1900 1280 1400 1460 1770 2170 2350 3180

A total of 181 rows are displayed for years 2013 through 2025.